sensor_id;sensor_type;location;lat;lon;timestamp;P1;durP1;ratioP1;P2;durP2;ratioP2
23543;SDS011;11950;51.230;4.012;2023-06-26T00:00:46;3.72;;;2.28;;
23543;SDS011;11950;51.230;4.012;2023-06-26T00:03:13;4.65;;;2.75;;
23543;SDS011;11950;51.230;4.012;2023-06-26T00:05:41;7.38;;;3.22;;
23543;SDS011;11950;51.230;4.012;2023-06-26T00:08:07;4.85;;;2.60;;
23543;SDS011;11950;51.230;4.012;2023-06-26T00:10:34;3.63;;;2.50;;
23543;SDS011;11950;51.230;4.012;2023-06-26T00:13:00;3.85;;;2.72;;
23543;SDS011;11950;51.230;4.012;2023-06-26T00:15:27;6.20;;;2.97;;
23543;SDS011;11950;51.230;4.012;2023-06-26T00:17:57;6.20;;;2.95;;
23543;SDS011;11950;51.230;4.012;2023-06-26T00:20:24;5.85;;;2.47;;
23543;SDS011;11950;51.230;4.012;2023-06-26T00:22:51;2.50;;;2.10;;
23543;SDS011;11950;51.230;4.012;2023-06-26T00:25:19;5.30;;;2.80;;
23543;SDS011;11950;51.230;4.012;2023-06-26T00:27:45;5.90;;;2.53;;
23543;SDS011;11950;51.230;4.012;2023-06-26T00:30:11;7.40;;;2.60;;
23543;SDS011;11950;51.230;4.012;2023-06-26T00:32:38;4.75;;;2.55;;
23543;SDS011;11950;51.230;4.012;2023-06-26T00:35:04;4.90;;;2.38;;
23543;SDS011;11950;51.230;4.012;2023-06-26T00:37:31;4.20;;;2.58;;
23543;SDS011;11950;51.230;4.012;2023-06-26T00:39:57;5.35;;;2.63;;
23543;SDS011;11950;51.230;4.012;2023-06-26T00:42:23;5.03;;;2.28;;
23543;SDS011;11950;51.230;4.012;2023-06-26T00:44:49;5.63;;;3.13;;
23543;SDS011;11950;51.230;4.012;2023-06-26T00:47:17;6.57;;;3.10;;
23543;SDS011;11950;51.230;4.012;2023-06-26T00:49:44;6.47;;;2.70;;
23543;SDS011;11950;51.230;4.012;2023-06-26T00:52:10;7.55;;;2.95;;
23543;SDS011;11950;51.230;4.012;2023-06-26T00:54:36;5.30;;;2.97;;
23543;SDS011;11950;51.230;4.012;2023-06-26T00:57:03;6.47;;;2.45;;
23543;SDS011;11950;51.230;4.012;2023-06-26T00:59:29;5.93;;;2.80;;
23543;SDS011;11950;51.230;4.012;2023-06-26T01:01:56;7.18;;;2.90;;
23543;SDS011;11950;51.230;4.012;2023-06-26T01:04:22;6.07;;;2.95;;
23543;SDS011;11950;51.230;4.012;2023-06-26T01:06:53;5.93;;;2.50;;
23543;SDS011;11950;51.230;4.012;2023-06-26T01:09:24;7.40;;;3.03;;
23543;SDS011;11950;51.230;4.012;2023-06-26T01:11:51;5.07;;;3.25;;
23543;SDS011;11950;51.230;4.012;2023-06-26T01:14:18;6.38;;;2.97;;
23543;SDS011;11950;51.230;4.012;2023-06-26T01:16:44;6.35;;;2.72;;
23543;SDS011;11950;51.230;4.012;2023-06-26T01:19:19;5.82;;;3.20;;
23543;SDS011;11950;51.230;4.012;2023-06-26T01:21:55;6.85;;;3.13;;
23543;SDS011;11950;51.230;4.012;2023-06-26T01:24:41;6.05;;;2.92;;
23543;SDS011;11950;51.230;4.012;2023-06-26T01:27:35;8.18;;;3.22;;
23543;SDS011;11950;51.230;4.012;2023-06-26T01:30:02;6.97;;;2.83;;
23543;SDS011;11950;51.230;4.012;2023-06-26T01:32:30;5.72;;;3.20;;
23543;SDS011;11950;51.230;4.012;2023-06-26T01:34:58;6.50;;;3.50;;
23543;SDS011;11950;51.230;4.012;2023-06-26T01:37:28;5.72;;;3.22;;
23543;SDS011;11950;51.230;4.012;2023-06-26T01:39:54;5.50;;;3.22;;
23543;SDS011;11950;51.230;4.012;2023-06-26T01:42:21;4.32;;;2.50;;
23543;SDS011;11950;51.230;4.012;2023-06-26T01:44:47;7.63;;;2.60;;
23543;SDS011;11950;51.230;4.012;2023-06-26T01:47:18;4.18;;;2.83;;
23543;SDS011;11950;51.230;4.012;2023-06-26T01:52:43;6.32;;;3.05;;
23543;SDS011;11950;51.230;4.012;2023-06-26T01:55:32;6.75;;;2.88;;
23543;SDS011;11950;51.230;4.012;2023-06-26T01:58:07;9.40;;;3.47;;
23543;SDS011;11950;51.230;4.012;2023-06-26T02:00:35;6.30;;;3.08;;
23543;SDS011;11950;51.230;4.012;2023-06-26T02:03:03;6.10;;;3.38;;
23543;SDS011;11950;51.230;4.012;2023-06-26T02:05:30;8.57;;;3.70;;
23543;SDS011;11950;51.230;4.012;2023-06-26T02:07:58;7.72;;;3.10;;
23543;SDS011;11950;51.230;4.012;2023-06-26T02:10:29;7.38;;;3.50;;
23543;SDS011;11950;51.230;4.012;2023-06-26T02:12:56;6.10;;;2.85;;
23543;SDS011;11950;51.230;4.012;2023-06-26T02:15:22;12.45;;;3.40;;
23543;SDS011;11950;51.230;4.012;2023-06-26T02:17:48;6.45;;;3.45;;
23543;SDS011;11950;51.230;4.012;2023-06-26T02:20:15;5.75;;;3.58;;
23543;SDS011;11950;51.230;4.012;2023-06-26T02:22:41;9.68;;;3.83;;
23543;SDS011;11950;51.230;4.012;2023-06-26T02:25:09;8.30;;;3.17;;
23543;SDS011;11950;51.230;4.012;2023-06-26T02:27:38;5.15;;;2.95;;
23543;SDS011;11950;51.230;4.012;2023-06-26T02:30:05;6.97;;;3.28;;
23543;SDS011;11950;51.230;4.012;2023-06-26T02:32:31;10.50;;;3.55;;
23543;SDS011;11950;51.230;4.012;2023-06-26T02:34:58;6.95;;;3.08;;
23543;SDS011;11950;51.230;4.012;2023-06-26T02:37:24;11.38;;;4.20;;
23543;SDS011;11950;51.230;4.012;2023-06-26T02:39:50;8.02;;;3.60;;
23543;SDS011;11950;51.230;4.012;2023-06-26T02:42:17;8.18;;;3.58;;
23543;SDS011;11950;51.230;4.012;2023-06-26T02:44:43;11.60;;;4.47;;
23543;SDS011;11950;51.230;4.012;2023-06-26T02:47:09;8.55;;;3.28;;
23543;SDS011;11950;51.230;4.012;2023-06-26T02:49:39;10.15;;;3.95;;
23543;SDS011;11950;51.230;4.012;2023-06-26T02:52:06;8.35;;;3.78;;
23543;SDS011;11950;51.230;4.012;2023-06-26T02:54:32;10.13;;;4.10;;
23543;SDS011;11950;51.230;4.012;2023-06-26T02:57:03;9.35;;;3.47;;
23543;SDS011;11950;51.230;4.012;2023-06-26T02:59:30;8.40;;;3.47;;
23543;SDS011;11950;51.230;4.012;2023-06-26T03:01:58;10.10;;;3.55;;
23543;SDS011;11950;51.230;4.012;2023-06-26T03:04:35;10.80;;;3.85;;
23543;SDS011;11950;51.230;4.012;2023-06-26T03:07:03;9.25;;;3.72;;
23543;SDS011;11950;51.230;4.012;2023-06-26T03:09:30;10.93;;;3.15;;
23543;SDS011;11950;51.230;4.012;2023-06-26T03:11:57;10.90;;;3.90;;
23543;SDS011;11950;51.230;4.012;2023-06-26T03:14:23;10.65;;;3.78;;
23543;SDS011;11950;51.230;4.012;2023-06-26T03:16:50;10.65;;;4.22;;
23543;SDS011;11950;51.230;4.012;2023-06-26T03:19:18;11.38;;;3.92;;
23543;SDS011;11950;51.230;4.012;2023-06-26T03:22:05;9.73;;;3.20;;
23543;SDS011;11950;51.230;4.012;2023-06-26T03:24:31;11.38;;;3.90;;
23543;SDS011;11950;51.230;4.012;2023-06-26T03:26:59;10.60;;;3.55;;
23543;SDS011;11950;51.230;4.012;2023-06-26T03:29:26;8.05;;;3.20;;
23543;SDS011;11950;51.230;4.012;2023-06-26T03:31:52;13.07;;;3.65;;
23543;SDS011;11950;51.230;4.012;2023-06-26T03:34:20;11.20;;;3.92;;
23543;SDS011;11950;51.230;4.012;2023-06-26T03:36:47;10.63;;;3.40;;
23543;SDS011;11950;51.230;4.012;2023-06-26T03:39:13;11.20;;;3.85;;
23543;SDS011;11950;51.230;4.012;2023-06-26T03:41:40;9.50;;;3.08;;
23543;SDS011;11950;51.230;4.012;2023-06-26T03:44:06;11.40;;;3.63;;
23543;SDS011;11950;51.230;4.012;2023-06-26T03:46:42;9.90;;;3.95;;
23543;SDS011;11950;51.230;4.012;2023-06-26T03:49:08;11.68;;;3.53;;
23543;SDS011;11950;51.230;4.012;2023-06-26T03:51:36;8.35;;;3.35;;
23543;SDS011;11950;51.230;4.012;2023-06-26T03:54:03;11.70;;;3.85;;
23543;SDS011;11950;51.230;4.012;2023-06-26T03:56:29;11.85;;;3.50;;
23543;SDS011;11950;51.230;4.012;2023-06-26T03:58:55;13.73;;;3.28;;
23543;SDS011;11950;51.230;4.012;2023-06-26T04:01:21;11.23;;;3.67;;
23543;SDS011;11950;51.230;4.012;2023-06-26T04:03:49;12.57;;;3.55;;
23543;SDS011;11950;51.230;4.012;2023-06-26T04:06:15;12.63;;;3.22;;
23543;SDS011;11950;51.230;4.012;2023-06-26T04:08:41;9.77;;;3.38;;
23543;SDS011;11950;51.230;4.012;2023-06-26T04:11:08;9.07;;;2.97;;
23543;SDS011;11950;51.230;4.012;2023-06-26T04:13:34;11.70;;;2.67;;
23543;SDS011;11950;51.230;4.012;2023-06-26T04:16:00;8.63;;;2.83;;
23543;SDS011;11950;51.230;4.012;2023-06-26T04:18:27;13.63;;;3.67;;
23543;SDS011;11950;51.230;4.012;2023-06-26T04:21:09;8.32;;;2.83;;
23543;SDS011;11950;51.230;4.012;2023-06-26T04:23:39;13.50;;;3.97;;
23543;SDS011;11950;51.230;4.012;2023-06-26T04:26:06;11.85;;;3.53;;
23543;SDS011;11950;51.230;4.012;2023-06-26T04:28:33;10.23;;;2.92;;
23543;SDS011;11950;51.230;4.012;2023-06-26T04:31:03;11.23;;;2.75;;
23543;SDS011;11950;51.230;4.012;2023-06-26T04:33:30;8.38;;;3.47;;
23543;SDS011;11950;51.230;4.012;2023-06-26T04:35:57;9.82;;;3.15;;
23543;SDS011;11950;51.230;4.012;2023-06-26T04:38:23;10.25;;;2.83;;
23543;SDS011;11950;51.230;4.012;2023-06-26T04:40:49;8.98;;;2.90;;
23543;SDS011;11950;51.230;4.012;2023-06-26T04:43:16;12.60;;;2.45;;
23543;SDS011;11950;51.230;4.012;2023-06-26T04:45:42;8.68;;;3.10;;
23543;SDS011;11950;51.230;4.012;2023-06-26T04:48:08;7.35;;;2.75;;
23543;SDS011;11950;51.230;4.012;2023-06-26T04:50:35;7.05;;;2.20;;
23543;SDS011;11950;51.230;4.012;2023-06-26T04:53:01;9.00;;;2.72;;
23543;SDS011;11950;51.230;4.012;2023-06-26T04:55:28;11.75;;;2.85;;
23543;SDS011;11950;51.230;4.012;2023-06-26T04:57:54;8.82;;;2.33;;
23543;SDS011;11950;51.230;4.012;2023-06-26T05:00:20;12.02;;;2.60;;
23543;SDS011;11950;51.230;4.012;2023-06-26T05:02:46;14.73;;;2.97;;
23543;SDS011;11950;51.230;4.012;2023-06-26T05:05:13;7.72;;;2.40;;
23543;SDS011;11950;51.230;4.012;2023-06-26T05:07:40;7.13;;;2.10;;
23543;SDS011;11950;51.230;4.012;2023-06-26T05:10:07;8.02;;;2.05;;
23543;SDS011;11950;51.230;4.012;2023-06-26T05:12:33;8.32;;;2.08;;
23543;SDS011;11950;51.230;4.012;2023-06-26T05:14:59;8.57;;;2.20;;
23543;SDS011;11950;51.230;4.012;2023-06-26T05:17:26;8.23;;;2.03;;
23543;SDS011;11950;51.230;4.012;2023-06-26T05:19:52;6.75;;;2.10;;
23543;SDS011;11950;51.230;4.012;2023-06-26T05:22:18;6.75;;;1.77;;
23543;SDS011;11950;51.230;4.012;2023-06-26T05:24:46;8.82;;;1.77;;
23543;SDS011;11950;51.230;4.012;2023-06-26T05:27:13;6.03;;;1.60;;
23543;SDS011;11950;51.230;4.012;2023-06-26T05:29:47;8.77;;;1.80;;
23543;SDS011;11950;51.230;4.012;2023-06-26T05:32:15;4.00;;;1.20;;
23543;SDS011;11950;51.230;4.012;2023-06-26T05:37:14;8.02;;;1.20;;
23543;SDS011;11950;51.230;4.012;2023-06-26T05:39:46;5.15;;;1.27;;
23543;SDS011;11950;51.230;4.012;2023-06-26T05:42:13;5.32;;;1.10;;
23543;SDS011;11950;51.230;4.012;2023-06-26T05:44:40;6.68;;;1.10;;
23543;SDS011;11950;51.230;4.012;2023-06-26T05:47:06;6.93;;;1.13;;
23543;SDS011;11950;51.230;4.012;2023-06-26T05:49:33;7.60;;;0.93;;
23543;SDS011;11950;51.230;4.012;2023-06-26T05:51:59;6.47;;;1.23;;
23543;SDS011;11950;51.230;4.012;2023-06-26T05:54:26;3.92;;;0.90;;
23543;SDS011;11950;51.230;4.012;2023-06-26T05:56:52;5.38;;;0.77;;
23543;SDS011;11950;51.230;4.012;2023-06-26T05:59:24;4.70;;;0.95;;
23543;SDS011;11950;51.230;4.012;2023-06-26T06:01:52;7.53;;;1.50;;
23543;SDS011;11950;51.230;4.012;2023-06-26T06:04:18;3.28;;;0.73;;
23543;SDS011;11950;51.230;4.012;2023-06-26T06:06:45;8.18;;;0.80;;
23543;SDS011;11950;51.230;4.012;2023-06-26T06:09:11;2.17;;;0.70;;
23543;SDS011;11950;51.230;4.012;2023-06-26T06:11:37;4.10;;;0.80;;
23543;SDS011;11950;51.230;4.012;2023-06-26T06:14:03;5.95;;;1.25;;
23543;SDS011;11950;51.230;4.012;2023-06-26T06:16:30;3.78;;;0.73;;
23543;SDS011;11950;51.230;4.012;2023-06-26T06:18:56;4.28;;;0.93;;
23543;SDS011;11950;51.230;4.012;2023-06-26T06:21:22;4.93;;;0.88;;
23543;SDS011;11950;51.230;4.012;2023-06-26T06:23:48;3.28;;;1.08;;
23543;SDS011;11950;51.230;4.012;2023-06-26T06:26:15;5.65;;;1.08;;
23543;SDS011;11950;51.230;4.012;2023-06-26T06:28:41;3.58;;;0.70;;
23543;SDS011;11950;51.230;4.012;2023-06-26T06:31:07;2.33;;;1.00;;
23543;SDS011;11950;51.230;4.012;2023-06-26T06:33:33;4.90;;;0.60;;
23543;SDS011;11950;51.230;4.012;2023-06-26T06:36:00;1.38;;;0.65;;
23543;SDS011;11950;51.230;4.012;2023-06-26T06:38:26;4.25;;;0.88;;
23543;SDS011;11950;51.230;4.012;2023-06-26T06:40:53;5.20;;;0.93;;
23543;SDS011;11950;51.230;4.012;2023-06-26T06:43:19;5.28;;;0.70;;
23543;SDS011;11950;51.230;4.012;2023-06-26T06:45:45;3.58;;;0.65;;
23543;SDS011;11950;51.230;4.012;2023-06-26T06:48:11;6.55;;;1.65;;
23543;SDS011;11950;51.230;4.012;2023-06-26T06:50:37;3.58;;;0.70;;
23543;SDS011;11950;51.230;4.012;2023-06-26T06:53:04;5.25;;;0.90;;
23543;SDS011;11950;51.230;4.012;2023-06-26T06:55:30;1.60;;;0.77;;
23543;SDS011;11950;51.230;4.012;2023-06-26T06:57:56;2.97;;;0.77;;
23543;SDS011;11950;51.230;4.012;2023-06-26T07:00:23;3.97;;;0.80;;
23543;SDS011;11950;51.230;4.012;2023-06-26T07:02:49;4.70;;;0.70;;
23543;SDS011;11950;51.230;4.012;2023-06-26T07:05:16;4.50;;;0.82;;
23543;SDS011;11950;51.230;4.012;2023-06-26T07:07:42;2.65;;;0.70;;
23543;SDS011;11950;51.230;4.012;2023-06-26T07:10:09;4.88;;;0.60;;
23543;SDS011;11950;51.230;4.012;2023-06-26T07:12:37;3.03;;;0.73;;
23543;SDS011;11950;51.230;4.012;2023-06-26T07:15:04;3.03;;;0.70;;
23543;SDS011;11950;51.230;4.012;2023-06-26T07:17:31;3.90;;;0.70;;
23543;SDS011;11950;51.230;4.012;2023-06-26T07:19:59;4.38;;;0.70;;
23543;SDS011;11950;51.230;4.012;2023-06-26T07:22:26;3.10;;;0.70;;
23543;SDS011;11950;51.230;4.012;2023-06-26T07:24:52;4.20;;;0.90;;
23543;SDS011;11950;51.230;4.012;2023-06-26T07:27:19;4.47;;;0.80;;
23543;SDS011;11950;51.230;4.012;2023-06-26T07:29:46;3.47;;;0.70;;
23543;SDS011;11950;51.230;4.012;2023-06-26T07:32:12;4.32;;;1.00;;
23543;SDS011;11950;51.230;4.012;2023-06-26T07:34:38;4.78;;;1.00;;
23543;SDS011;11950;51.230;4.012;2023-06-26T07:37:05;2.05;;;0.68;;
23543;SDS011;11950;51.230;4.012;2023-06-26T07:39:31;2.60;;;0.47;;
23543;SDS011;11950;51.230;4.012;2023-06-26T07:41:57;3.05;;;0.70;;
23543;SDS011;11950;51.230;4.012;2023-06-26T07:44:26;3.40;;;0.68;;
23543;SDS011;11950;51.230;4.012;2023-06-26T07:46:53;2.03;;;0.63;;
23543;SDS011;11950;51.230;4.012;2023-06-26T07:49:19;9.52;;;1.23;;
23543;SDS011;11950;51.230;4.012;2023-06-26T07:51:45;4.35;;;1.25;;
23543;SDS011;11950;51.230;4.012;2023-06-26T07:54:11;5.13;;;0.80;;
23543;SDS011;11950;51.230;4.012;2023-06-26T07:56:57;4.53;;;0.77;;
23543;SDS011;11950;51.230;4.012;2023-06-26T07:59:30;2.33;;;0.80;;
23543;SDS011;11950;51.230;4.012;2023-06-26T08:01:57;1.75;;;0.70;;
23543;SDS011;11950;51.230;4.012;2023-06-26T08:04:24;3.50;;;0.80;;
23543;SDS011;11950;51.230;4.012;2023-06-26T08:06:52;2.90;;;0.90;;
23543;SDS011;11950;51.230;4.012;2023-06-26T08:09:20;3.72;;;0.90;;
23543;SDS011;11950;51.230;4.012;2023-06-26T08:11:48;4.10;;;0.93;;
23543;SDS011;11950;51.230;4.012;2023-06-26T08:14:15;3.47;;;0.88;;
23543;SDS011;11950;51.230;4.012;2023-06-26T08:16:42;1.90;;;0.90;;
23543;SDS011;11950;51.230;4.012;2023-06-26T08:19:13;4.20;;;1.10;;
23543;SDS011;11950;51.230;4.012;2023-06-26T08:21:40;4.75;;;1.02;;
23543;SDS011;11950;51.230;4.012;2023-06-26T08:24:07;3.97;;;0.70;;
23543;SDS011;11950;51.230;4.012;2023-06-26T08:26:34;5.32;;;0.82;;
23543;SDS011;11950;51.230;4.012;2023-06-26T08:29:00;4.95;;;0.90;;
23543;SDS011;11950;51.230;4.012;2023-06-26T08:31:36;5.50;;;1.10;;
23543;SDS011;11950;51.230;4.012;2023-06-26T08:34:03;1.95;;;0.90;;
23543;SDS011;11950;51.230;4.012;2023-06-26T08:36:30;3.03;;;0.80;;
23543;SDS011;11950;51.230;4.012;2023-06-26T08:38:57;2.65;;;0.70;;
23543;SDS011;11950;51.230;4.012;2023-06-26T08:41:23;5.57;;;1.00;;
23543;SDS011;11950;51.230;4.012;2023-06-26T08:43:50;2.60;;;0.88;;
23543;SDS011;11950;51.230;4.012;2023-06-26T08:46:18;3.53;;;0.82;;
23543;SDS011;11950;51.230;4.012;2023-06-26T08:48:48;3.42;;;0.90;;
23543;SDS011;11950;51.230;4.012;2023-06-26T08:51:17;2.70;;;0.70;;
23543;SDS011;11950;51.230;4.012;2023-06-26T08:56:24;6.18;;;0.95;;
23543;SDS011;11950;51.230;4.012;2023-06-26T08:58:53;4.93;;;0.93;;
23543;SDS011;11950;51.230;4.012;2023-06-26T09:01:20;6.20;;;0.88;;
23543;SDS011;11950;51.230;4.012;2023-06-26T09:03:46;3.63;;;0.80;;
23543;SDS011;11950;51.230;4.012;2023-06-26T09:06:13;4.03;;;0.90;;
23543;SDS011;11950;51.230;4.012;2023-06-26T09:08:39;2.08;;;0.90;;
23543;SDS011;11950;51.230;4.012;2023-06-26T09:11:06;8.43;;;1.00;;
23543;SDS011;11950;51.230;4.012;2023-06-26T09:13:32;2.45;;;0.80;;
23543;SDS011;11950;51.230;4.012;2023-06-26T09:15:59;2.05;;;0.80;;
23543;SDS011;11950;51.230;4.012;2023-06-26T09:18:32;3.67;;;0.85;;
23543;SDS011;11950;51.230;4.012;2023-06-26T09:20:58;2.72;;;0.80;;
23543;SDS011;11950;51.230;4.012;2023-06-26T09:23:25;3.63;;;1.00;;
23543;SDS011;11950;51.230;4.012;2023-06-26T09:25:52;4.28;;;1.23;;
23543;SDS011;11950;51.230;4.012;2023-06-26T09:28:19;1.30;;;0.80;;
23543;SDS011;11950;51.230;4.012;2023-06-26T09:30:45;1.83;;;0.70;;
23543;SDS011;11950;51.230;4.012;2023-06-26T09:33:15;3.95;;;0.70;;
23543;SDS011;11950;51.230;4.012;2023-06-26T09:35:46;2.05;;;0.80;;
23543;SDS011;11950;51.230;4.012;2023-06-26T09:38:13;6.00;;;0.98;;
23543;SDS011;11950;51.230;4.012;2023-06-26T09:40:40;4.63;;;0.95;;
23543;SDS011;11950;51.230;4.012;2023-06-26T09:43:12;2.33;;;0.90;;
23543;SDS011;11950;51.230;4.012;2023-06-26T09:45:39;4.43;;;0.80;;
23543;SDS011;11950;51.230;4.012;2023-06-26T09:48:06;3.22;;;0.60;;
23543;SDS011;11950;51.230;4.012;2023-06-26T09:50:34;2.88;;;0.90;;
23543;SDS011;11950;51.230;4.012;2023-06-26T09:53:08;3.45;;;0.80;;
23543;SDS011;11950;51.230;4.012;2023-06-26T09:55:36;2.53;;;0.80;;
23543;SDS011;11950;51.230;4.012;2023-06-26T09:58:03;3.35;;;0.80;;
23543;SDS011;11950;51.230;4.012;2023-06-26T10:00:30;3.85;;;1.00;;
23543;SDS011;11950;51.230;4.012;2023-06-26T10:02:58;2.30;;;0.70;;
23543;SDS011;11950;51.230;4.012;2023-06-26T10:05:24;3.45;;;0.63;;
23543;SDS011;11950;51.230;4.012;2023-06-26T10:07:51;3.08;;;0.80;;
23543;SDS011;11950;51.230;4.012;2023-06-26T10:10:19;1.92;;;0.80;;
23543;SDS011;11950;51.230;4.012;2023-06-26T10:12:48;1.77;;;0.73;;
23543;SDS011;11950;51.230;4.012;2023-06-26T10:15:20;2.92;;;0.70;;
23543;SDS011;11950;51.230;4.012;2023-06-26T10:17:49;3.05;;;0.68;;
23543;SDS011;11950;51.230;4.012;2023-06-26T10:20:15;2.80;;;0.70;;
23543;SDS011;11950;51.230;4.012;2023-06-26T10:22:44;5.05;;;0.70;;
23543;SDS011;11950;51.230;4.012;2023-06-26T10:25:12;2.45;;;0.77;;
23543;SDS011;11950;51.230;4.012;2023-06-26T10:27:44;2.28;;;0.70;;
23543;SDS011;11950;51.230;4.012;2023-06-26T10:30:14;3.08;;;0.80;;
23543;SDS011;11950;51.230;4.012;2023-06-26T10:32:45;3.55;;;0.82;;
23543;SDS011;11950;51.230;4.012;2023-06-26T10:35:11;1.88;;;0.77;;
23543;SDS011;11950;51.230;4.012;2023-06-26T10:40:20;2.80;;;0.73;;
23543;SDS011;11950;51.230;4.012;2023-06-26T10:42:51;3.70;;;1.13;;
23543;SDS011;11950;51.230;4.012;2023-06-26T10:45:32;1.70;;;0.80;;
23543;SDS011;11950;51.230;4.012;2023-06-26T10:47:59;2.85;;;0.80;;
23543;SDS011;11950;51.230;4.012;2023-06-26T10:50:27;2.22;;;0.88;;
23543;SDS011;11950;51.230;4.012;2023-06-26T10:56:00;3.20;;;0.80;;
23543;SDS011;11950;51.230;4.012;2023-06-26T11:03:41;4.45;;;0.90;;
23543;SDS011;11950;51.230;4.012;2023-06-26T11:06:18;1.55;;;0.80;;
23543;SDS011;11950;51.230;4.012;2023-06-26T11:08:46;4.25;;;0.75;;
23543;SDS011;11950;51.230;4.012;2023-06-26T11:11:13;1.58;;;0.80;;
23543;SDS011;11950;51.230;4.012;2023-06-26T11:13:40;3.22;;;0.80;;
23543;SDS011;11950;51.230;4.012;2023-06-26T11:16:08;4.90;;;0.80;;
23543;SDS011;11950;51.230;4.012;2023-06-26T11:18:34;2.05;;;0.60;;
23543;SDS011;11950;51.230;4.012;2023-06-26T11:21:07;4.32;;;0.70;;
23543;SDS011;11950;51.230;4.012;2023-06-26T11:23:35;3.50;;;0.77;;
23543;SDS011;11950;51.230;4.012;2023-06-26T11:28:50;2.55;;;0.88;;
23543;SDS011;11950;51.230;4.012;2023-06-26T11:33:52;2.72;;;0.85;;
23543;SDS011;11950;51.230;4.012;2023-06-26T11:36:22;3.08;;;0.65;;
23543;SDS011;11950;51.230;4.012;2023-06-26T11:38:56;6.53;;;0.70;;
23543;SDS011;11950;51.230;4.012;2023-06-26T11:41:28;2.92;;;0.70;;
23543;SDS011;11950;51.230;4.012;2023-06-26T11:44:05;1.83;;;0.75;;
23543;SDS011;11950;51.230;4.012;2023-06-26T11:46:36;6.18;;;0.70;;
23543;SDS011;11950;51.230;4.012;2023-06-26T11:49:03;4.53;;;0.95;;
23543;SDS011;11950;51.230;4.012;2023-06-26T11:51:30;1.77;;;0.77;;
23543;SDS011;11950;51.230;4.012;2023-06-26T11:53:56;3.40;;;0.73;;
23543;SDS011;11950;51.230;4.012;2023-06-26T11:56:22;2.47;;;0.70;;
23543;SDS011;11950;51.230;4.012;2023-06-26T12:01:33;4.03;;;0.70;;
23543;SDS011;11950;51.230;4.012;2023-06-26T12:04:01;2.17;;;0.90;;
23543;SDS011;11950;51.230;4.012;2023-06-26T12:06:29;3.22;;;0.90;;
23543;SDS011;11950;51.230;4.012;2023-06-26T12:08:58;1.75;;;0.70;;
23543;SDS011;11950;51.230;4.012;2023-06-26T12:11:26;1.65;;;0.80;;
23543;SDS011;11950;51.230;4.012;2023-06-26T12:13:56;3.97;;;0.80;;
23543;SDS011;11950;51.230;4.012;2023-06-26T12:16:23;1.25;;;0.68;;
23543;SDS011;11950;51.230;4.012;2023-06-26T12:18:51;2.35;;;0.80;;
23543;SDS011;11950;51.230;4.012;2023-06-26T12:24:08;4.80;;;0.70;;
23543;SDS011;11950;51.230;4.012;2023-06-26T12:26:36;2.30;;;0.80;;
23543;SDS011;11950;51.230;4.012;2023-06-26T12:29:03;1.95;;;0.80;;
23543;SDS011;11950;51.230;4.012;2023-06-26T12:31:29;1.30;;;0.70;;
23543;SDS011;11950;51.230;4.012;2023-06-26T12:33:57;4.35;;;0.88;;
23543;SDS011;11950;51.230;4.012;2023-06-26T12:36:24;1.90;;;0.68;;
23543;SDS011;11950;51.230;4.012;2023-06-26T12:38:52;2.85;;;1.08;;
23543;SDS011;11950;51.230;4.012;2023-06-26T12:41:19;2.17;;;0.70;;
23543;SDS011;11950;51.230;4.012;2023-06-26T12:43:45;1.15;;;0.70;;
23543;SDS011;11950;51.230;4.012;2023-06-26T12:46:12;4.47;;;0.80;;
23543;SDS011;11950;51.230;4.012;2023-06-26T12:48:39;2.95;;;0.77;;
23543;SDS011;11950;51.230;4.012;2023-06-26T12:51:09;5.80;;;1.05;;
23543;SDS011;11950;51.230;4.012;2023-06-26T12:53:37;2.85;;;0.60;;
23543;SDS011;11950;51.230;4.012;2023-06-26T12:56:10;5.05;;;0.85;;
23543;SDS011;11950;51.230;4.012;2023-06-26T12:58:37;2.25;;;0.60;;
23543;SDS011;11950;51.230;4.012;2023-06-26T13:01:04;3.22;;;0.85;;
23543;SDS011;11950;51.230;4.012;2023-06-26T13:03:40;3.15;;;0.77;;
23543;SDS011;11950;51.230;4.012;2023-06-26T13:06:09;1.40;;;0.60;;
23543;SDS011;11950;51.230;4.012;2023-06-26T13:08:35;2.25;;;0.57;;
23543;SDS011;11950;51.230;4.012;2023-06-26T13:11:02;3.67;;;0.55;;
23543;SDS011;11950;51.230;4.012;2023-06-26T13:13:29;1.33;;;0.70;;
23543;SDS011;11950;51.230;4.012;2023-06-26T13:15:55;4.00;;;0.70;;
23543;SDS011;11950;51.230;4.012;2023-06-26T13:18:21;2.05;;;0.88;;
23543;SDS011;11950;51.230;4.012;2023-06-26T13:20:47;2.53;;;0.70;;
23543;SDS011;11950;51.230;4.012;2023-06-26T13:23:14;0.95;;;0.50;;
23543;SDS011;11950;51.230;4.012;2023-06-26T13:25:40;2.83;;;0.60;;
23543;SDS011;11950;51.230;4.012;2023-06-26T13:28:07;3.78;;;0.77;;
23543;SDS011;11950;51.230;4.012;2023-06-26T13:30:36;1.17;;;0.70;;
23543;SDS011;11950;51.230;4.012;2023-06-26T13:33:02;3.03;;;0.80;;
23543;SDS011;11950;51.230;4.012;2023-06-26T13:35:29;1.65;;;0.80;;
23543;SDS011;11950;51.230;4.012;2023-06-26T13:37:55;1.48;;;0.80;;
23543;SDS011;11950;51.230;4.012;2023-06-26T13:40:21;4.53;;;0.88;;
23543;SDS011;11950;51.230;4.012;2023-06-26T13:42:47;3.20;;;0.70;;
23543;SDS011;11950;51.230;4.012;2023-06-26T13:45:14;6.97;;;1.05;;
23543;SDS011;11950;51.230;4.012;2023-06-26T13:47:40;2.90;;;0.70;;
23543;SDS011;11950;51.230;4.012;2023-06-26T13:50:07;1.10;;;0.80;;
23543;SDS011;11950;51.230;4.012;2023-06-26T13:52:35;1.90;;;1.02;;
23543;SDS011;11950;51.230;4.012;2023-06-26T13:55:01;2.13;;;0.80;;
23543;SDS011;11950;51.230;4.012;2023-06-26T13:57:31;1.60;;;0.85;;
23543;SDS011;11950;51.230;4.012;2023-06-26T13:59:57;4.30;;;0.90;;
23543;SDS011;11950;51.230;4.012;2023-06-26T14:02:24;2.90;;;0.90;;
23543;SDS011;11950;51.230;4.012;2023-06-26T14:04:52;1.95;;;0.80;;
23543;SDS011;11950;51.230;4.012;2023-06-26T14:07:18;2.55;;;0.70;;
23543;SDS011;11950;51.230;4.012;2023-06-26T14:09:44;3.72;;;0.90;;
23543;SDS011;11950;51.230;4.012;2023-06-26T14:12:10;6.22;;;1.00;;
23543;SDS011;11950;51.230;4.012;2023-06-26T14:14:37;6.70;;;1.23;;
23543;SDS011;11950;51.230;4.012;2023-06-26T14:17:04;3.28;;;1.08;;
23543;SDS011;11950;51.230;4.012;2023-06-26T14:19:31;1.92;;;0.70;;
23543;SDS011;11950;51.230;4.012;2023-06-26T14:21:57;2.58;;;0.80;;
23543;SDS011;11950;51.230;4.012;2023-06-26T14:24:25;3.08;;;0.88;;
23543;SDS011;11950;51.230;4.012;2023-06-26T14:26:51;5.28;;;0.77;;
23543;SDS011;11950;51.230;4.012;2023-06-26T14:29:17;4.50;;;0.80;;
23543;SDS011;11950;51.230;4.012;2023-06-26T14:31:45;1.77;;;0.80;;
23543;SDS011;11950;51.230;4.012;2023-06-26T14:34:12;2.30;;;0.98;;
23543;SDS011;11950;51.230;4.012;2023-06-26T14:36:38;3.42;;;0.90;;
23543;SDS011;11950;51.230;4.012;2023-06-26T14:39:04;3.70;;;0.80;;
23543;SDS011;11950;51.230;4.012;2023-06-26T14:41:30;2.72;;;0.82;;
23543;SDS011;11950;51.230;4.012;2023-06-26T14:43:57;3.63;;;0.95;;
23543;SDS011;11950;51.230;4.012;2023-06-26T14:46:23;3.20;;;0.85;;
23543;SDS011;11950;51.230;4.012;2023-06-26T14:48:49;2.45;;;0.80;;
23543;SDS011;11950;51.230;4.012;2023-06-26T14:51:17;2.03;;;0.80;;
23543;SDS011;11950;51.230;4.012;2023-06-26T14:53:43;2.45;;;0.80;;
23543;SDS011;11950;51.230;4.012;2023-06-26T14:56:09;2.35;;;0.80;;
23543;SDS011;11950;51.230;4.012;2023-06-26T14:58:35;3.50;;;1.10;;
23543;SDS011;11950;51.230;4.012;2023-06-26T15:01:02;1.70;;;1.00;;
23543;SDS011;11950;51.230;4.012;2023-06-26T15:03:28;3.55;;;0.73;;
23543;SDS011;11950;51.230;4.012;2023-06-26T15:05:54;4.95;;;1.00;;
23543;SDS011;11950;51.230;4.012;2023-06-26T15:08:20;2.40;;;0.80;;
23543;SDS011;11950;51.230;4.012;2023-06-26T15:10:46;3.22;;;0.88;;
23543;SDS011;11950;51.230;4.012;2023-06-26T15:13:12;4.97;;;0.90;;
23543;SDS011;11950;51.230;4.012;2023-06-26T15:15:39;1.33;;;0.77;;
23543;SDS011;11950;51.230;4.012;2023-06-26T15:18:05;3.25;;;0.82;;